createdAt,value
2023-04-01T00:01:19.756Z,7.80
2023-04-01T00:03:49.561Z,7.60
2023-04-01T00:06:19.785Z,6.50
2023-04-01T00:08:48.552Z,6.60
2023-04-01T00:11:18.296Z,6.30
2023-04-01T00:13:49.689Z,6.00
2023-04-01T00:16:22.096Z,6.60
2023-04-01T00:18:51.966Z,7.10
2023-04-01T00:21:23.054Z,7.60
2023-04-01T00:23:52.277Z,8.10
2023-04-01T00:26:23.121Z,8.30
2023-04-01T00:28:52.306Z,7.50
2023-04-01T00:31:21.779Z,9.40
2023-04-01T00:33:50.741Z,9.40
2023-04-01T00:36:25.490Z,8.70
2023-04-01T00:38:54.259Z,10.10
2023-04-01T00:41:23.102Z,9.90
2023-04-01T00:43:53.205Z,10.20
2023-04-01T00:46:21.930Z,11.00
2023-04-01T00:48:56.576Z,11.10
2023-04-01T00:51:30.925Z,11.00
2023-04-01T00:54:02.948Z,11.70
2023-04-01T00:56:51.038Z,11.90
2023-04-01T00:59:28.463Z,11.90
2023-04-01T01:01:57.598Z,11.70
2023-04-01T01:04:32.568Z,10.60
2023-04-01T01:07:38.081Z,9.80
2023-04-01T01:10:40.146Z,9.80
2023-04-01T01:13:12.776Z,9.50
2023-04-01T01:16:12.124Z,9.00
2023-04-01T01:19:10.739Z,10.80
2023-04-01T01:22:19.767Z,9.50
2023-04-01T01:25:19.191Z,10.90
2023-04-01T01:28:30.968Z,9.70
2023-04-01T01:31:22.323Z,10.10
2023-04-01T01:34:09.990Z,9.70
2023-04-01T01:36:41.677Z,9.80
2023-04-01T01:39:15.111Z,10.20
2023-04-01T01:41:46.372Z,9.30
2023-04-01T01:44:17.432Z,9.60
2023-04-01T01:46:47.118Z,9.80
2023-04-01T01:49:18.263Z,10.20
2023-04-01T01:51:46.998Z,9.90
2023-04-01T01:54:19.068Z,9.60
2023-04-01T01:56:52.924Z,9.90
2023-04-01T01:59:23.548Z,10.20
2023-04-01T02:01:56.962Z,9.20
2023-04-01T02:04:26.938Z,8.60
2023-04-01T02:07:04.705Z,9.30
2023-04-01T02:09:35.397Z,8.50
2023-04-01T02:12:10.894Z,8.20
2023-04-01T02:14:55.955Z,9.10
2023-04-01T02:17:36.950Z,8.70
2023-04-01T02:20:22.561Z,8.60
2023-04-01T02:22:55.935Z,9.50
2023-04-01T02:25:32.324Z,8.30
2023-04-01T02:28:02.036Z,8.90
2023-04-01T02:30:34.968Z,9.60
2023-04-01T02:33:06.752Z,9.10
2023-04-01T02:35:38.660Z,9.00
2023-04-01T02:38:10.370Z,8.10
2023-04-01T02:43:22.595Z,8.10
2023-04-01T02:45:51.211Z,8.80
2023-04-01T02:48:20.290Z,9.10
2023-04-01T02:50:49.220Z,9.00
2023-04-01T02:53:18.603Z,9.40
2023-04-01T02:55:47.432Z,10.00
2023-04-01T02:58:16.120Z,10.30
2023-04-01T03:00:44.859Z,10.00
2023-04-01T03:03:14.816Z,10.60
2023-04-01T03:05:43.615Z,10.80
2023-04-01T03:08:13.018Z,10.90
2023-04-01T03:10:41.759Z,11.70
2023-04-01T03:13:10.477Z,12.00
2023-04-01T03:15:39.157Z,11.60
2023-04-01T03:18:07.742Z,11.60
2023-04-01T03:20:37.200Z,11.40
2023-04-01T03:25:35.107Z,12.20
2023-04-01T03:28:04.561Z,13.80
2023-04-01T03:30:33.141Z,14.20
2023-04-01T03:33:02.181Z,16.50
2023-04-01T03:35:34.646Z,18.90
2023-04-01T03:38:04.578Z,16.40
2023-04-01T03:40:34.327Z,14.90
2023-04-01T03:43:03.299Z,14.00
2023-04-01T03:45:32.181Z,12.30
2023-04-01T03:48:01.055Z,12.20
2023-04-01T03:50:31.203Z,12.30
2023-04-01T03:53:01.103Z,13.30
2023-04-01T03:55:30.005Z,13.10
2023-04-01T03:57:58.858Z,11.80
2023-04-01T04:00:27.485Z,12.80
2023-04-01T04:02:59.843Z,13.00
2023-04-01T04:05:33.093Z,13.40
2023-04-01T04:08:02.934Z,12.70
2023-04-01T04:10:31.716Z,12.50
2023-04-01T04:13:00.403Z,11.60
2023-04-01T04:15:30.966Z,12.20
2023-04-01T04:17:59.973Z,12.80
2023-04-01T04:20:28.545Z,13.00
2023-04-01T04:22:57.380Z,13.80
2023-04-01T04:25:26.116Z,13.00
2023-04-01T04:27:54.938Z,12.50
2023-04-01T04:30:24.884Z,12.40
2023-04-01T04:32:53.727Z,12.70
2023-04-01T04:35:22.404Z,12.40
2023-04-01T04:37:51.131Z,12.40
2023-04-01T04:40:20.944Z,12.10
2023-04-01T04:42:49.545Z,12.80
2023-04-01T04:45:18.433Z,12.60
2023-04-01T04:47:54.854Z,12.40
2023-04-01T04:50:25.163Z,13.40
2023-04-01T04:52:53.845Z,12.50
2023-04-01T04:55:23.313Z,11.40
2023-04-01T04:58:00.656Z,12.40
2023-04-01T05:00:29.501Z,12.50
2023-04-01T05:03:01.926Z,12.00
2023-04-01T05:05:31.281Z,12.10
2023-04-01T05:10:29.530Z,12.30
2023-04-01T05:12:59.184Z,11.90
2023-04-01T05:15:27.889Z,12.00
2023-04-01T05:20:26.302Z,10.90
2023-04-01T05:22:58.754Z,11.30
2023-04-01T05:25:27.554Z,11.40
2023-04-01T05:27:56.595Z,11.80
2023-04-01T05:30:25.760Z,11.80
2023-04-01T05:33:04.218Z,12.30
2023-04-01T05:35:33.290Z,11.80
2023-04-01T05:38:02.795Z,12.30
2023-04-01T05:40:33.670Z,11.80
2023-04-01T05:43:02.264Z,11.30
2023-04-01T05:45:31.324Z,11.20
2023-04-01T05:48:15.138Z,10.90
2023-04-01T05:50:43.800Z,11.40
2023-04-01T05:53:13.308Z,11.30
2023-04-01T05:55:44.563Z,12.20
2023-04-01T05:58:13.297Z,11.80
2023-04-01T06:00:42.697Z,12.00
2023-04-01T06:03:11.727Z,11.00
2023-04-01T06:05:44.647Z,11.70
2023-04-01T06:08:19.643Z,12.10
2023-04-01T06:11:03.179Z,12.50
2023-04-01T06:14:19.669Z,12.60
2023-04-01T06:17:24.030Z,11.70
2023-04-01T06:20:24.394Z,11.80
2023-04-01T06:23:19.872Z,11.70
2023-04-01T06:26:00.688Z,9.60
2023-04-01T06:28:48.577Z,10.50
2023-04-01T06:31:25.996Z,10.60
2023-04-01T06:34:48.712Z,10.60
2023-04-01T06:37:44.460Z,10.30
2023-04-01T06:40:46.508Z,10.70
2023-04-01T06:43:42.063Z,9.80
2023-04-01T06:46:42.278Z,9.50
2023-04-01T06:50:08.790Z,10.30
2023-04-01T06:53:14.101Z,9.90
2023-04-01T06:56:38.737Z,9.80
2023-04-01T06:59:26.499Z,10.80
2023-04-01T07:02:05.931Z,10.30
2023-04-01T07:07:36.814Z,10.20
2023-04-01T07:10:18.201Z,11.10
2023-04-01T07:14:01.312Z,9.90
2023-04-01T07:17:01.399Z,10.20
2023-04-01T07:19:58.859Z,11.60
2023-04-01T07:22:38.074Z,10.70
2023-04-01T07:25:26.482Z,12.40
2023-04-01T07:28:18.202Z,12.00
2023-04-01T07:30:54.031Z,12.30
2023-04-01T07:33:54.756Z,13.60
2023-04-01T07:37:03.676Z,14.10
2023-04-01T07:40:00.917Z,12.10
2023-04-01T07:42:46.046Z,11.90
2023-04-01T07:45:26.955Z,11.10
2023-04-01T07:48:32.441Z,10.60
2023-04-01T07:51:36.277Z,10.30
2023-04-01T07:54:15.791Z,10.20
2023-04-01T07:57:20.197Z,10.40
2023-04-01T08:00:42.612Z,10.30
2023-04-01T08:03:33.904Z,9.80
2023-04-01T08:06:48.800Z,9.90
2023-04-01T08:09:55.150Z,9.90
2023-04-01T08:13:42.414Z,10.30
2023-04-01T08:16:59.023Z,9.40
2023-04-01T08:20:31.455Z,9.20
2023-04-01T08:23:13.969Z,10.50
2023-04-01T08:25:57.355Z,12.40
2023-04-01T08:28:46.208Z,11.80
2023-04-01T08:31:33.442Z,11.00
2023-04-01T08:34:09.678Z,11.90
2023-04-01T08:36:48.249Z,11.00
2023-04-01T08:39:31.541Z,11.20
2023-04-01T08:42:44.665Z,10.10
2023-04-01T08:46:01.943Z,11.50
2023-04-01T08:49:04.750Z,12.70
2023-04-01T08:52:20.172Z,13.00
2023-04-01T08:55:16.819Z,12.30
2023-04-01T08:59:00.946Z,12.50
2023-04-01T09:02:00.106Z,11.30
2023-04-01T09:06:22.168Z,11.90
2023-04-01T09:09:03.626Z,13.30
2023-04-01T09:12:18.954Z,12.30
2023-04-01T09:15:18.572Z,11.60
2023-04-01T09:21:24.835Z,11.10
2023-04-01T09:24:20.940Z,10.20
2023-04-01T09:27:15.265Z,10.80
2023-04-01T09:29:57.020Z,10.90
2023-04-01T09:32:46.991Z,11.60
2023-04-01T09:35:42.615Z,11.70
2023-04-01T09:38:35.357Z,9.80
2023-04-01T09:41:31.797Z,11.70
2023-04-01T09:44:37.290Z,11.30
2023-04-01T09:47:39.055Z,11.40
2023-04-01T09:50:28.527Z,10.10
2023-04-01T09:53:38.652Z,11.30
2023-04-01T09:56:19.928Z,11.40
2023-04-01T09:58:54.605Z,11.40
2023-04-01T10:02:11.054Z,12.80
2023-04-01T10:05:22.716Z,13.00
2023-04-01T10:08:31.707Z,13.50
2023-04-01T10:11:22.682Z,12.20
2023-04-01T10:14:18.607Z,11.00
2023-04-01T10:17:12.401Z,12.40
2023-04-01T10:20:20.811Z,13.00
2023-04-01T10:23:27.679Z,12.90
2023-04-01T10:26:25.540Z,11.90
2023-04-01T10:29:26.527Z,10.60
2023-04-01T10:32:43.578Z,11.60
2023-04-01T10:35:40.738Z,12.80
2023-04-01T10:38:46.579Z,12.10
2023-04-01T10:41:18.279Z,10.90
2023-04-01T10:45:04.511Z,11.40
2023-04-01T10:48:04.555Z,11.10
2023-04-01T10:51:24.888Z,11.40
2023-04-01T10:54:08.906Z,11.50
2023-04-01T10:57:58.234Z,12.00
2023-04-01T11:01:13.813Z,11.20
2023-04-01T11:04:10.084Z,13.10
2023-04-01T11:07:09.104Z,11.70
2023-04-01T11:13:28.965Z,11.40
2023-04-01T11:16:00.845Z,11.10
2023-04-01T11:19:05.882Z,11.00
2023-04-01T11:21:54.697Z,10.10
2023-04-01T11:25:20.593Z,9.50
2023-04-01T11:28:39.176Z,9.70
2023-04-01T11:31:41.876Z,9.80
2023-04-01T11:35:03.290Z,10.00
2023-04-01T11:38:03.598Z,9.80
2023-04-01T11:41:26.797Z,9.90
2023-04-01T11:45:17.256Z,10.50
2023-04-01T11:48:36.045Z,9.30
2023-04-01T11:51:16.949Z,10.60
2023-04-01T11:54:16.381Z,10.30
2023-04-01T11:57:24.959Z,10.00
2023-04-01T12:00:04.073Z,10.70
2023-04-01T12:03:25.154Z,9.60
2023-04-01T12:06:25.299Z,8.90
2023-04-01T12:09:06.201Z,9.60
2023-04-01T12:11:42.238Z,8.70
2023-04-01T12:14:44.522Z,9.70
2023-04-01T12:17:45.275Z,9.50
2023-04-01T12:20:14.096Z,8.80
2023-04-01T12:23:00.593Z,9.60
2023-04-01T12:26:04.032Z,9.70
2023-04-01T12:28:46.112Z,9.80
2023-04-01T12:32:05.363Z,10.30
2023-04-01T12:37:19.308Z,10.10
2023-04-01T12:39:51.198Z,10.40
2023-04-01T12:42:48.741Z,10.60
2023-04-01T12:45:56.716Z,10.40
2023-04-01T12:49:01.300Z,9.40
2023-04-01T12:51:39.712Z,11.10
2023-04-01T12:54:46.476Z,10.40
2023-04-01T12:57:27.162Z,11.30
2023-04-01T13:00:33.043Z,10.20
2023-04-01T13:03:29.142Z,9.80
2023-04-01T13:06:45.220Z,9.70
2023-04-01T13:09:18.340Z,10.20
2023-04-01T13:12:21.413Z,10.60
2023-04-01T13:15:11.933Z,9.90
2023-04-01T13:17:55.409Z,10.10
2023-04-01T13:21:09.435Z,11.10
2023-04-01T13:23:59.115Z,10.10
2023-04-01T13:26:39.845Z,10.10
2023-04-01T13:29:14.271Z,9.10
2023-04-01T13:31:58.036Z,9.70
2023-04-01T13:34:53.764Z,10.30
2023-04-01T13:37:28.966Z,10.80
2023-04-01T13:40:27.424Z,11.20
2023-04-01T13:43:38.650Z,9.80
2023-04-01T13:46:16.989Z,11.50
2023-04-01T13:48:57.740Z,9.70
2023-04-01T13:52:04.332Z,8.90
2023-04-01T13:55:03.341Z,9.80
2023-04-01T13:58:21.571Z,9.90
2023-04-01T14:01:20.585Z,10.20
2023-04-01T14:04:41.597Z,9.50
2023-04-01T14:07:10.280Z,9.60
2023-04-01T14:10:10.582Z,10.30
2023-04-01T14:13:40.957Z,9.50
2023-04-01T14:16:35.627Z,10.10
2023-04-01T14:19:29.083Z,10.60
2023-04-01T14:22:24.318Z,9.90
2023-04-01T14:25:23.621Z,11.70
2023-04-01T14:27:58.018Z,12.10
2023-04-01T14:31:13.992Z,9.80
2023-04-01T14:34:45.077Z,9.00
2023-04-01T14:37:49.913Z,9.30
2023-04-01T14:40:40.871Z,9.30
2023-04-01T14:43:30.062Z,9.30
2023-04-01T14:47:06.046Z,8.80
2023-04-01T14:49:48.668Z,8.70
2023-04-01T14:52:35.502Z,8.50
2023-04-01T14:55:29.529Z,9.30
2023-04-01T14:58:20.030Z,9.30
2023-04-01T15:01:13.186Z,9.80
2023-04-01T15:03:56.623Z,9.40
2023-04-01T15:06:53.722Z,10.30
2023-04-01T15:09:32.381Z,10.40
2023-04-01T15:12:25.761Z,10.00
2023-04-01T15:15:03.928Z,10.60
2023-04-01T15:17:44.198Z,10.40
2023-04-01T15:20:54.883Z,9.70
2023-04-01T15:23:41.858Z,10.70
2023-04-01T15:26:58.757Z,10.20
2023-04-01T15:30:18.981Z,11.00
2023-04-01T15:33:10.723Z,10.40
2023-04-01T15:36:01.547Z,10.60
2023-04-01T15:38:52.298Z,10.90
2023-04-01T15:41:36.652Z,10.90
2023-04-01T15:44:05.308Z,10.70
2023-04-01T15:46:58.317Z,11.10
2023-04-01T15:49:43.574Z,9.80
2023-04-01T15:52:26.297Z,11.80
2023-04-01T15:55:22.210Z,11.60
2023-04-01T15:58:43.399Z,12.00
2023-04-01T16:01:43.910Z,12.60
2023-04-01T16:04:43.750Z,12.60
2023-04-01T16:07:38.194Z,12.90
2023-04-01T16:10:28.545Z,11.90
2023-04-01T16:13:34.176Z,12.50
2023-04-01T16:16:27.198Z,12.60
2023-04-01T16:19:24.216Z,12.30
2023-04-01T16:21:59.402Z,12.30
2023-04-01T16:24:52.105Z,12.10
2023-04-01T16:27:23.479Z,11.20
2023-04-01T16:30:05.027Z,11.90
2023-04-01T16:32:52.356Z,11.80
2023-04-01T16:35:56.997Z,11.50
2023-04-01T16:38:51.593Z,11.50
2023-04-01T16:41:33.139Z,13.00
2023-04-01T16:44:20.644Z,11.90
2023-04-01T16:47:14.339Z,12.30
2023-04-01T16:49:59.637Z,11.80
2023-04-01T16:52:44.505Z,11.80
2023-04-01T16:55:22.453Z,12.10
2023-04-01T16:58:00.847Z,11.60
2023-04-01T17:00:41.799Z,11.40
2023-04-01T17:03:27.206Z,12.60
2023-04-01T17:06:14.500Z,11.90
2023-04-01T17:09:15.007Z,11.50
2023-04-01T17:11:43.906Z,12.00
2023-04-01T17:14:46.688Z,11.30
2023-04-01T17:17:49.131Z,12.60
2023-04-01T17:20:39.074Z,12.80
2023-04-01T17:23:33.348Z,13.50
2023-04-01T17:26:11.492Z,15.00
2023-04-01T17:28:56.098Z,14.00
2023-04-01T17:31:27.371Z,14.40
2023-04-01T17:34:05.187Z,14.60
2023-04-01T17:36:53.977Z,14.00
2023-04-01T17:39:41.688Z,13.40
2023-04-01T17:42:25.954Z,13.30
2023-04-01T17:45:24.151Z,12.80
2023-04-01T17:48:34.628Z,13.40
2023-04-01T17:51:44.883Z,13.90
2023-04-01T17:54:33.238Z,14.10
2023-04-01T17:58:14.113Z,13.90
2023-04-01T18:01:03.378Z,14.00
2023-04-01T18:04:12.210Z,14.20
2023-04-01T18:06:51.028Z,13.70
2023-04-01T18:09:43.387Z,13.10
2023-04-01T18:12:39.784Z,13.10
2023-04-01T18:16:07.809Z,12.40
2023-04-01T18:18:58.324Z,14.10
2023-04-01T18:21:38.385Z,14.20
2023-04-01T18:24:21.712Z,14.30
2023-04-01T18:27:19.250Z,14.70
2023-04-01T18:30:09.000Z,15.70
2023-04-01T18:33:05.704Z,14.60
2023-04-01T18:36:27.864Z,14.20
2023-04-01T18:39:04.663Z,13.80
2023-04-01T18:42:06.079Z,14.00
2023-04-01T18:45:16.980Z,14.20
2023-04-01T18:48:14.748Z,15.30
2023-04-01T18:51:11.830Z,15.20
2023-04-01T18:54:23.493Z,15.60
2023-04-01T18:56:52.333Z,14.90
2023-04-01T18:59:40.819Z,15.10
2023-04-01T19:03:18.108Z,14.50
2023-04-01T19:05:51.077Z,14.30
2023-04-01T19:08:24.928Z,14.40
2023-04-01T19:11:11.947Z,15.00
2023-04-01T19:13:43.321Z,15.80
2023-04-01T19:16:33.487Z,15.60
2023-04-01T19:19:40.579Z,15.70
2023-04-01T19:22:41.644Z,14.10
2023-04-01T19:25:39.321Z,14.30
2023-04-01T19:28:50.034Z,13.10
2023-04-01T19:32:06.782Z,14.20
2023-04-01T19:35:35.478Z,13.50
2023-04-01T19:38:54.650Z,14.10
2023-04-01T19:41:32.416Z,14.00
2023-04-01T19:44:16.060Z,14.20
2023-04-01T19:46:59.739Z,13.80
2023-04-01T19:49:31.181Z,14.00
2023-04-01T19:52:32.765Z,12.80
2023-04-01T19:55:33.463Z,12.80
2023-04-01T19:58:14.043Z,13.30
2023-04-01T20:00:54.148Z,12.80
2023-04-01T20:03:56.486Z,13.60
2023-04-01T20:06:33.813Z,12.90
2023-04-01T20:09:49.689Z,12.60
2023-04-01T20:12:43.884Z,12.40
2023-04-01T20:15:57.192Z,13.10
2023-04-01T20:18:58.412Z,12.90
2023-04-01T20:21:48.919Z,12.50
2023-04-01T20:24:47.831Z,12.70
2023-04-01T20:27:33.610Z,13.50
2023-04-01T20:30:29.728Z,12.90
2023-04-01T20:33:27.465Z,12.30
2023-04-01T20:36:20.531Z,12.80
2023-04-01T20:39:26.096Z,13.30
2023-04-01T20:42:13.884Z,13.00
2023-04-01T20:45:22.666Z,14.10
2023-04-01T20:48:56.181Z,14.70
2023-04-01T20:51:31.424Z,13.90
2023-04-01T20:54:22.160Z,14.20
2023-04-01T20:57:24.785Z,14.10
2023-04-01T21:00:01.153Z,13.50
2023-04-01T21:03:28.227Z,14.00
2023-04-01T21:06:50.358Z,15.40
2023-04-01T21:09:24.624Z,15.10
2023-04-01T21:12:28.656Z,15.50
2023-04-01T21:15:13.711Z,15.40
2023-04-01T21:18:08.269Z,15.50
2023-04-01T21:21:13.767Z,15.00
2023-04-01T21:23:51.319Z,15.10
2023-04-01T21:26:34.992Z,15.00
2023-04-01T21:29:52.743Z,14.10
2023-04-01T21:32:47.053Z,14.20
2023-04-01T21:35:53.742Z,14.90
2023-04-01T21:38:40.190Z,14.00
2023-04-01T21:41:21.289Z,14.10
2023-04-01T21:44:19.905Z,13.60
2023-04-01T21:47:20.667Z,13.40
2023-04-01T21:50:40.983Z,13.60
2023-04-01T21:53:28.799Z,12.80
2023-04-01T21:56:48.487Z,12.10
2023-04-01T21:59:49.046Z,13.20
2023-04-01T22:02:53.977Z,13.90
2023-04-01T22:05:43.689Z,13.70
2023-04-01T22:08:36.446Z,12.30
2023-04-01T22:11:46.208Z,12.70
2023-04-01T22:14:35.090Z,13.20
2023-04-01T22:17:45.206Z,11.70
2023-04-01T22:21:14.438Z,12.70
2023-04-01T22:24:21.402Z,12.20
2023-04-01T22:27:05.055Z,13.30
2023-04-01T22:30:00.898Z,13.10
2023-04-01T22:32:36.761Z,12.00
2023-04-01T22:35:22.736Z,11.70
2023-04-01T22:38:06.055Z,12.20
2023-04-01T22:40:53.056Z,11.20
2023-04-01T22:43:35.761Z,12.40
2023-04-01T22:46:10.099Z,12.30
2023-04-01T22:48:48.982Z,12.00
2023-04-01T22:51:25.585Z,12.10
2023-04-01T22:54:19.637Z,12.70
2023-04-01T22:56:57.927Z,12.40
2023-04-01T22:59:47.996Z,12.00
2023-04-01T23:02:43.457Z,12.50
2023-04-01T23:05:18.676Z,12.30
2023-04-01T23:07:59.156Z,12.70
2023-04-01T23:10:46.667Z,13.60
2023-04-01T23:13:26.941Z,13.40
2023-04-01T23:15:56.598Z,12.10
2023-04-01T23:18:46.916Z,13.40
2023-04-01T23:21:48.147Z,12.70
2023-04-01T23:24:27.971Z,12.60
2023-04-01T23:27:12.001Z,12.40
2023-04-01T23:29:44.259Z,12.30
2023-04-01T23:32:20.534Z,13.50
2023-04-01T23:35:01.071Z,12.20
2023-04-01T23:37:29.812Z,13.40
2023-04-01T23:39:59.722Z,12.80
2023-04-01T23:42:42.130Z,12.60
2023-04-01T23:45:18.659Z,12.00
2023-04-01T23:47:50.834Z,12.20
2023-04-01T23:50:26.816Z,12.30
2023-04-01T23:53:25.325Z,11.50
2023-04-01T23:55:55.337Z,12.00
2023-04-01T23:58:42.003Z,12.40
